Time;durP1;ratioP1;P1;durP2;ratioP2;P2;SDS_P1;SDS_P2;PMS_P1;PMS_P2;Temp;Humidity;BMP_temperature;BMP_pressure;BME280_temperature;BME280_humidity;BME280_pressure;Samples;Min_cycle;Max_cycle;Signal;HPM_P1;HPM_P2
2022/03/11 00:02:08;;;;;;;13.30;9.73;;;;;;;;;;5062617;28;20196;-65
2022/03/11 00:04:34;;;;;;;14.80;9.27;;;;;;;;;;5062419;28;20220;-65
2022/03/11 00:07:00;;;;;;;12.25;9.68;;;;;;;;;;5062064;28;20448;-65
2022/03/11 00:09:28;;;;;;;14.02;9.65;;;;;;;;;;5062621;28;20201;-65
2022/03/11 00:11:54;;;;;;;13.60;9.10;;;;;;;;;;5061995;28;20235;-65
2022/03/11 00:14:21;;;;;;;14.15;10.15;;;;;;;;;;5062743;28;20243;-65
2022/03/11 00:16:47;;;;;;;14.02;10.02;;;;;;;;;;5062151;28;20243;-65
2022/03/11 00:19:13;;;;;;;14.68;10.02;;;;;;;;;;5062243;28;20243;-65
2022/03/11 00:21:39;;;;;;;16.58;11.05;;;;;;;;;;5062115;28;20243;-65
2022/03/11 00:24:06;;;;;;;12.63;10.35;;;;;;;;;;5062198;28;20243;-65
2022/03/11 00:26:34;;;;;;;13.10;10.05;;;;;;;;;;5061830;28;20233;-65
2022/03/11 00:29:00;;;;;;;16.17;11.35;;;;;;;;;;5062132;28;20197;-65
2022/03/11 00:31:27;;;;;;;13.60;9.80;;;;;;;;;;5062227;28;20197;-65
2022/03/11 00:33:54;;;;;;;15.05;10.90;;;;;;;;;;5062188;28;20287;-65
2022/03/11 00:36:21;;;;;;;17.33;10.98;;;;;;;;;;5061893;28;20266;-65
2022/03/11 00:38:47;;;;;;;17.50;11.13;;;;;;;;;;5062093;28;20197;-65
2022/03/11 00:41:13;;;;;;;16.52;11.07;;;;;;;;;;5062173;28;20465;-65
2022/03/11 00:43:41;;;;;;;16.45;11.32;;;;;;;;;;5062131;28;20550;-65
2022/03/11 00:46:07;;;;;;;17.10;11.60;;;;;;;;;;5061671;28;20221;-65
2022/03/11 00:48:33;;;;;;;13.93;11.35;;;;;;;;;;5061796;28;20452;-65
2022/03/11 00:51:00;;;;;;;15.65;10.90;;;;;;;;;;5062160;28;20205;-65
2022/03/11 00:53:27;;;;;;;16.83;11.80;;;;;;;;;;5062034;28;20201;-65
2022/03/11 00:55:53;;;;;;;16.20;11.90;;;;;;;;;;5061953;28;20269;-65
2022/03/11 00:58:20;;;;;;;16.45;11.93;;;;;;;;;;5061632;28;20207;-65
2022/03/11 01:00:47;;;;;;;15.25;11.32;;;;;;;;;;5061793;28;20204;-65
2022/03/11 01:03:14;;;;;;;19.45;11.73;;;;;;;;;;5062175;28;20201;-65
2022/03/11 01:05:40;;;;;;;20.63;12.50;;;;;;;;;;5061803;28;20217;-65
2022/03/11 01:08:06;;;;;;;23.15;13.85;;;;;;;;;;5061758;28;20243;-65
2022/03/11 01:10:33;;;;;;;17.55;12.32;;;;;;;;;;5061757;28;20208;-65
2022/03/11 01:12:59;;;;;;;18.33;12.20;;;;;;;;;;5061772;28;20212;-65
2022/03/11 01:15:25;;;;;;;18.30;12.75;;;;;;;;;;5061773;28;20522;-65
2022/03/11 01:17:53;;;;;;;15.32;12.10;;;;;;;;;;5061465;28;20376;-65
2022/03/11 01:20:19;;;;;;;18.70;13.07;;;;;;;;;;5061918;28;20204;-66
2022/03/11 01:22:45;;;;;;;16.20;12.27;;;;;;;;;;5061812;28;20235;-65
2022/03/11 01:25:11;;;;;;;19.67;13.23;;;;;;;;;;5064845;28;20229;-65
2022/03/11 01:27:38;;;;;;;18.27;12.57;;;;;;;;;;5065382;28;20660;-65
2022/03/11 01:30:05;;;;;;;17.27;13.27;;;;;;;;;;5065297;28;20197;-65
2022/03/11 01:32:31;;;;;;;16.33;13.18;;;;;;;;;;5065223;28;20243;-65
2022/03/11 01:34:59;;;;;;;18.98;13.80;;;;;;;;;;5065506;28;20193;-65
2022/03/11 01:37:25;;;;;;;22.50;13.88;;;;;;;;;;5065101;28;20198;-65
2022/03/11 01:39:51;;;;;;;18.05;13.13;;;;;;;;;;5065257;28;20205;-65
2022/03/11 01:42:17;;;;;;;19.95;13.35;;;;;;;;;;5065140;28;20431;-66
2022/03/11 01:44:44;;;;;;;16.90;12.38;;;;;;;;;;5064931;28;20201;-65
2022/03/11 01:47:10;;;;;;;17.63;12.48;;;;;;;;;;5065288;28;20209;-65
2022/03/11 01:49:36;;;;;;;20.05;13.68;;;;;;;;;;5065013;28;20203;-65
2022/03/11 01:52:04;;;;;;;18.98;13.80;;;;;;;;;;5065351;28;20197;-65
2022/03/11 01:54:31;;;;;;;20.85;13.55;;;;;;;;;;5064999;28;20212;-65
2022/03/11 01:56:58;;;;;;;20.10;14.15;;;;;;;;;;5064697;28;20232;-65
2022/03/11 01:59:24;;;;;;;18.83;13.88;;;;;;;;;;5064686;28;20197;-65
2022/03/11 02:01:50;;;;;;;16.85;13.43;;;;;;;;;;5064961;28;20193;-65
2022/03/11 02:04:16;;;;;;;18.63;13.63;;;;;;;;;;5064963;28;20212;-65
2022/03/11 02:06:43;;;;;;;18.73;14.18;;;;;;;;;;5064443;28;20554;-66
2022/03/11 02:09:11;;;;;;;18.77;14.25;;;;;;;;;;5064664;28;20397;-65
2022/03/11 02:11:37;;;;;;;19.80;13.60;;;;;;;;;;5065165;28;20201;-65
2022/03/11 02:14:05;;;;;;;20.05;15.00;;;;;;;;;;5064891;28;20620;-65
2022/03/11 02:16:32;;;;;;;21.67;14.38;;;;;;;;;;5064596;28;20193;-65
2022/03/11 02:18:58;;;;;;;24.42;16.35;;;;;;;;;;5064666;28;20203;-65
2022/03/11 02:21:26;;;;;;;21.45;14.70;;;;;;;;;;5064453;28;20197;-65
2022/03/11 02:23:55;;;;;;;22.55;14.68;;;;;;;;;;5064337;28;20374;-65
2022/03/11 02:26:22;;;;;;;23.55;16.40;;;;;;;;;;5064028;28;20446;-65
2022/03/11 02:28:49;;;;;;;22.98;15.88;;;;;;;;;;5064683;28;20197;-65
2022/03/11 02:31:15;;;;;;;22.77;15.32;;;;;;;;;;5064170;28;20198;-65
2022/03/11 02:33:41;;;;;;;20.17;15.68;;;;;;;;;;5064113;28;20212;-65
2022/03/11 02:36:09;;;;;;;22.27;15.60;;;;;;;;;;5063818;28;20200;-65
2022/03/11 02:38:36;;;;;;;23.58;16.02;;;;;;;;;;5064113;28;20205;-65
2022/03/11 02:41:03;;;;;;;27.02;16.27;;;;;;;;;;5063971;28;20201;-65
2022/03/11 02:43:30;;;;;;;21.00;15.20;;;;;;;;;;5064209;28;20204;-65
2022/03/11 02:45:56;;;;;;;23.17;16.42;;;;;;;;;;5064120;28;20411;-65
2022/03/11 02:48:22;;;;;;;22.27;16.13;;;;;;;;;;5063246;28;20197;-65
2022/03/11 02:50:49;;;;;;;23.05;16.25;;;;;;;;;;5063774;28;20209;-65
2022/03/11 02:53:15;;;;;;;23.13;16.92;;;;;;;;;;5063969;28;20368;-65
2022/03/11 02:55:41;;;;;;;23.23;15.52;;;;;;;;;;5063887;28;20193;-65
2022/03/11 02:58:09;;;;;;;23.25;16.65;;;;;;;;;;5063608;28;20201;-65
2022/03/11 03:00:35;;;;;;;22.60;16.35;;;;;;;;;;5063593;28;20196;-65
2022/03/11 03:03:02;;;;;;;23.38;15.95;;;;;;;;;;5063488;28;20196;-65
2022/03/11 03:05:28;;;;;;;27.30;16.88;;;;;;;;;;5063319;28;20228;-65
2022/03/11 03:07:55;;;;;;;24.00;16.10;;;;;;;;;;5063639;28;20204;-65
2022/03/11 03:10:21;;;;;;;20.40;15.48;;;;;;;;;;5063403;28;20223;-65
2022/03/11 03:12:47;;;;;;;27.58;16.65;;;;;;;;;;5063518;28;20423;-65
2022/03/11 03:15:15;;;;;;;28.10;16.65;;;;;;;;;;5063397;28;20376;-65
2022/03/11 03:17:41;;;;;;;23.35;16.13;;;;;;;;;;5063008;28;20212;-65
2022/03/11 03:20:08;;;;;;;25.10;17.45;;;;;;;;;;5063429;28;20419;-65
2022/03/11 03:22:35;;;;;;;29.55;16.67;;;;;;;;;;5063403;28;20197;-65
2022/03/11 03:25:02;;;;;;;23.13;16.23;;;;;;;;;;5063189;28;20235;-65
2022/03/11 03:27:28;;;;;;;26.90;16.52;;;;;;;;;;5062782;28;20217;-65
2022/03/11 03:29:54;;;;;;;25.17;16.77;;;;;;;;;;5063106;28;20209;-65
2022/03/11 03:32:22;;;;;;;22.52;16.38;;;;;;;;;;5063010;28;20250;-65
2022/03/11 03:34:48;;;;;;;23.08;14.77;;;;;;;;;;5063248;28;20196;-65
2022/03/11 03:37:14;;;;;;;24.45;16.40;;;;;;;;;;5062928;28;20232;-65
2022/03/11 03:39:41;;;;;;;22.83;15.68;;;;;;;;;;5063185;28;20197;-65
2022/03/11 03:42:08;;;;;;;23.52;16.30;;;;;;;;;;5062992;28;20200;-65
2022/03/11 03:44:34;;;;;;;27.92;16.60;;;;;;;;;;5062773;28;20201;-65
2022/03/11 03:47:01;;;;;;;21.33;15.60;;;;;;;;;;5061551;28;20221;-65
2022/03/11 03:49:30;;;;;;;20.50;15.52;;;;;;;;;;5062688;28;20197;-65
2022/03/11 03:51:56;;;;;;;23.70;15.48;;;;;;;;;;5062869;28;20203;-65
2022/03/11 03:54:23;;;;;;;21.95;15.45;;;;;;;;;;5062873;28;20504;-65
2022/03/11 03:56:49;;;;;;;24.83;15.73;;;;;;;;;;5062435;28;20219;-65
2022/03/11 03:59:15;;;;;;;24.42;15.23;;;;;;;;;;5062503;28;20197;-65
2022/03/11 04:01:42;;;;;;;21.33;15.52;;;;;;;;;;5062505;28;20197;-65
2022/03/11 04:04:09;;;;;;;21.73;14.70;;;;;;;;;;5062631;28;20193;-65
2022/03/11 04:06:37;;;;;;;25.52;14.55;;;;;;;;;;5062033;28;20253;-65
2022/03/11 04:09:04;;;;;;;20.17;14.38;;;;;;;;;;5062899;28;20250;-65
2022/03/11 04:11:31;;;;;;;22.38;14.52;;;;;;;;;;5062352;28;20205;-65
2022/03/11 04:13:58;;;;;;;20.95;13.77;;;;;;;;;;5062280;28;20558;-65
2022/03/11 04:16:24;;;;;;;23.58;14.48;;;;;;;;;;5062122;28;20259;-65
2022/03/11 04:18:51;;;;;;;18.95;13.68;;;;;;;;;;5062482;28;20201;-65
2022/03/11 04:21:18;;;;;;;20.02;14.40;;;;;;;;;;5062467;28;20197;-65
2022/03/11 04:23:48;;;;;;;19.52;13.68;;;;;;;;;;5062180;28;20237;-65
2022/03/11 04:26:14;;;;;;;21.38;13.88;;;;;;;;;;5061964;28;20283;-65
2022/03/11 04:28:41;;;;;;;18.95;13.70;;;;;;;;;;5062640;28;20209;-65
2022/03/11 04:31:08;;;;;;;20.25;13.07;;;;;;;;;;5062374;28;20197;-65
2022/03/11 04:33:34;;;;;;;21.73;13.45;;;;;;;;;;5062258;28;20528;-65
2022/03/11 04:36:01;;;;;;;18.70;13.48;;;;;;;;;;5061997;28;20490;-65
2022/03/11 04:38:27;;;;;;;19.15;13.10;;;;;;;;;;5062516;28;20235;-65
2022/03/11 04:40:55;;;;;;;21.75;15.13;;;;;;;;;;5061971;28;20219;-65
2022/03/11 04:43:21;;;;;;;26.38;16.05;;;;;;;;;;5062175;28;20243;-65
2022/03/11 04:45:47;;;;;;;21.27;13.43;;;;;;;;;;5062117;28;20204;-65
2022/03/11 04:48:14;;;;;;;18.67;12.10;;;;;;;;;;5061883;28;20196;-65
2022/03/11 04:50:40;;;;;;;18.10;12.30;;;;;;;;;;5061991;28;20200;-65
2022/03/11 04:53:06;;;;;;;17.75;11.70;;;;;;;;;;5061836;28;20200;-65
2022/03/11 04:55:33;;;;;;;14.88;10.82;;;;;;;;;;5061706;28;20275;-65
2022/03/11 04:58:01;;;;;;;15.30;10.52;;;;;;;;;;5063243;28;20197;-65
2022/03/11 05:00:27;;;;;;;14.55;10.73;;;;;;;;;;5065954;28;20200;-65
2022/03/11 05:02:54;;;;;;;17.00;11.48;;;;;;;;;;5065977;28;20200;-65
2022/03/11 05:05:20;;;;;;;13.55;10.65;;;;;;;;;;5065975;28;20216;-65
2022/03/11 05:07:47;;;;;;;16.23;10.77;;;;;;;;;;5065651;28;20292;-65
2022/03/11 05:10:14;;;;;;;14.43;10.10;;;;;;;;;;5065673;28;20295;-65
2022/03/11 05:12:41;;;;;;;13.02;9.93;;;;;;;;;;5065960;28;20205;-65
2022/03/11 05:15:10;;;;;;;15.48;10.50;;;;;;;;;;5065717;28;20251;-65
2022/03/11 05:17:36;;;;;;;15.27;10.48;;;;;;;;;;5065529;28;20192;-65
2022/03/11 05:20:03;;;;;;;14.80;10.38;;;;;;;;;;5065781;28;20197;-65
2022/03/11 05:22:30;;;;;;;14.93;10.35;;;;;;;;;;5065399;28;20212;-65
2022/03/11 05:24:56;;;;;;;15.57;10.88;;;;;;;;;;5065384;28;20433;-65
2022/03/11 05:27:23;;;;;;;13.40;9.90;;;;;;;;;;5065216;28;20220;-65
2022/03/11 05:29:49;;;;;;;13.73;9.30;;;;;;;;;;5065445;28;20197;-65
2022/03/11 05:32:19;;;;;;;11.52;9.10;;;;;;;;;;5065356;28;20209;-65
2022/03/11 05:34:46;;;;;;;10.70;8.35;;;;;;;;;;5065277;28;20205;-65
2022/03/11 05:37:12;;;;;;;13.55;8.70;;;;;;;;;;5064879;28;20231;-65
2022/03/11 05:39:38;;;;;;;12.18;8.18;;;;;;;;;;5065382;28;20197;-65
2022/03/11 05:42:05;;;;;;;11.93;8.65;;;;;;;;;;5065389;28;20209;-65
2022/03/11 05:44:32;;;;;;;15.13;8.85;;;;;;;;;;5065212;28;20201;-65
2022/03/11 05:46:58;;;;;;;12.10;9.00;;;;;;;;;;5064838;28;20240;-65
2022/03/11 05:49:26;;;;;;;16.08;9.70;;;;;;;;;;5065035;28;20197;-65
2022/03/11 05:51:52;;;;;;;14.05;9.52;;;;;;;;;;5064804;28;20223;-65
2022/03/11 05:54:19;;;;;;;13.10;8.63;;;;;;;;;;5065040;28;20243;-65
2022/03/11 05:56:50;;;;;;;13.48;8.98;;;;;;;;;;5064772;28;20359;-65
2022/03/11 05:59:16;;;;;;;13.88;9.13;;;;;;;;;;5065307;28;20197;-65
2022/03/11 06:01:44;;;;;;;14.88;8.23;;;;;;;;;;5064796;28;20197;-65
2022/03/11 06:04:11;;;;;;;13.50;8.40;;;;;;;;;;5064661;28;20223;-65
2022/03/11 06:06:38;;;;;;;15.75;7.80;;;;;;;;;;5064168;28;20575;-65
2022/03/11 06:09:08;;;;;;;10.65;7.90;;;;;;;;;;5064519;28;20189;-65
2022/03/11 06:11:34;;;;;;;10.70;7.43;;;;;;;;;;5064647;28;20204;-65
2022/03/11 06:14:00;;;;;;;9.20;7.25;;;;;;;;;;5064757;28;20243;-65
2022/03/11 06:16:27;;;;;;;11.95;7.65;;;;;;;;;;5064318;28;20239;-65
2022/03/11 06:18:53;;;;;;;10.45;7.28;;;;;;;;;;5064407;28;20559;-65
2022/03/11 06:21:20;;;;;;;11.57;7.72;;;;;;;;;;5064649;28;20197;-65
2022/03/11 06:23:47;;;;;;;11.38;8.38;;;;;;;;;;5064150;28;20211;-65
2022/03/11 06:26:13;;;;;;;11.30;7.63;;;;;;;;;;5064292;28;20212;-65
2022/03/11 06:28:40;;;;;;;12.13;8.18;;;;;;;;;;5064366;28;20365;-65
2022/03/11 06:31:08;;;;;;;11.27;7.05;;;;;;;;;;5064351;28;20235;-65
2022/03/11 06:33:34;;;;;;;12.65;7.03;;;;;;;;;;5064242;28;20398;-65
2022/03/11 06:36:01;;;;;;;10.82;7.38;;;;;;;;;;5064167;28;20264;-65
2022/03/11 06:38:27;;;;;;;10.95;6.85;;;;;;;;;;5064011;28;20397;-65
2022/03/11 06:40:56;;;;;;;11.55;7.38;;;;;;;;;;5063445;28;20303;-65
2022/03/11 06:43:22;;;;;;;13.23;7.90;;;;;;;;;;5063446;28;20212;-65
2022/03/11 06:45:48;;;;;;;9.63;6.75;;;;;;;;;;5063956;28;20197;-65
2022/03/11 06:48:15;;;;;;;9.88;6.57;;;;;;;;;;5064025;28;20221;-65
2022/03/11 06:50:41;;;;;;;8.10;6.90;;;;;;;;;;5064166;28;20197;-65
2022/03/11 06:53:07;;;;;;;8.88;6.13;;;;;;;;;;5063700;28;20197;-65
2022/03/11 06:55:34;;;;;;;8.98;6.20;;;;;;;;;;5063838;28;20371;-65
2022/03/11 06:58:01;;;;;;;10.65;7.18;;;;;;;;;;5063606;28;20215;-65
2022/03/11 07:00:28;;;;;;;9.88;6.35;;;;;;;;;;5063671;28;20211;-65
2022/03/11 07:02:54;;;;;;;7.45;6.32;;;;;;;;;;5064093;28;20437;-65
2022/03/11 07:05:20;;;;;;;8.63;6.28;;;;;;;;;;5063713;28;20399;-65
2022/03/11 07:07:46;;;;;;;7.85;6.63;;;;;;;;;;5063511;28;20578;-65
2022/03/11 07:10:13;;;;;;;11.57;6.50;;;;;;;;;;5063561;28;20235;-65
2022/03/11 07:12:39;;;;;;;9.95;6.20;;;;;;;;;;5063393;28;20208;-65
2022/03/11 07:15:08;;;;;;;8.77;5.97;;;;;;;;;;5063382;28;20243;-65
2022/03/11 07:17:35;;;;;;;11.38;6.45;;;;;;;;;;5063037;28;20196;-65
2022/03/11 07:20:02;;;;;;;8.63;6.18;;;;;;;;;;5063379;28;20234;-65
2022/03/11 07:22:29;;;;;;;9.15;6.50;;;;;;;;;;5063434;28;20251;-65
2022/03/11 07:24:56;;;;;;;10.05;6.45;;;;;;;;;;5063148;28;20232;-65
2022/03/11 07:27:22;;;;;;;12.00;6.50;;;;;;;;;;5062791;28;20228;-65
2022/03/11 07:29:49;;;;;;;10.90;6.57;;;;;;;;;;5063085;28;20197;-65
2022/03/11 07:32:17;;;;;;;7.82;6.30;;;;;;;;;;5063378;28;20500;-65
2022/03/11 07:34:43;;;;;;;7.43;6.53;;;;;;;;;;5063320;28;20500;-65
2022/03/11 07:37:12;;;;;;;11.70;6.95;;;;;;;;;;5063097;28;20406;-65
2022/03/11 07:39:38;;;;;;;11.30;6.45;;;;;;;;;;5063002;28;20203;-65
2022/03/11 07:42:04;;;;;;;11.82;6.55;;;;;;;;;;5062946;28;20208;-65
2022/03/11 07:44:31;;;;;;;8.25;6.80;;;;;;;;;;5062996;28;20200;-65
2022/03/11 07:46:57;;;;;;;12.85;6.28;;;;;;;;;;5062565;28;20295;-65
2022/03/11 07:49:24;;;;;;;7.72;6.75;;;;;;;;;;5063687;28;20197;-67
2022/03/11 07:51:51;;;;;;;7.35;6.10;;;;;;;;;;5063750;28;20201;-65
2022/03/11 07:54:17;;;;;;;9.18;6.65;;;;;;;;;;5062694;28;20205;-65
2022/03/11 07:56:43;;;;;;;10.63;6.80;;;;;;;;;;5062429;28;20514;-65
2022/03/11 07:59:09;;;;;;;8.73;6.72;;;;;;;;;;5062558;28;20361;-65
2022/03/11 08:01:36;;;;;;;9.73;6.32;;;;;;;;;;5062377;28;20197;-65
2022/03/11 08:04:03;;;;;;;10.32;7.20;;;;;;;;;;5062457;28;20255;-65
2022/03/11 08:06:31;;;;;;;11.07;6.80;;;;;;;;;;5062015;28;20216;-65
2022/03/11 08:08:58;;;;;;;11.90;7.40;;;;;;;;;;5062257;28;20259;-65
2022/03/11 08:11:24;;;;;;;10.15;6.80;;;;;;;;;;5062351;28;20243;-66
2022/03/11 08:13:50;;;;;;;12.50;7.22;;;;;;;;;;5062463;28;20201;-66
2022/03/11 08:16:17;;;;;;;11.38;7.38;;;;;;;;;;5062400;28;20523;-65
2022/03/11 08:18:43;;;;;;;9.63;6.55;;;;;;;;;;5062221;28;20193;-66
2022/03/11 08:21:10;;;;;;;12.23;6.80;;;;;;;;;;5062125;28;20211;-65
2022/03/11 08:23:39;;;;;;;9.15;7.07;;;;;;;;;;5061931;28;20211;-65
2022/03/11 08:26:05;;;;;;;14.48;7.75;;;;;;;;;;5061788;28;20239;-65
2022/03/11 08:28:31;;;;;;;11.02;7.35;;;;;;;;;;5061853;28;20235;-65
2022/03/11 08:30:58;;;;;;;8.65;6.35;;;;;;;;;;5062143;28;20250;-65
2022/03/11 08:33:24;;;;;;;12.27;6.95;;;;;;;;;;5061478;28;20238;-66
2022/03/11 08:35:51;;;;;;;7.45;6.45;;;;;;;;;;5061859;28;20201;-65
2022/03/11 08:38:17;;;;;;;14.52;6.88;;;;;;;;;;5061659;28;20205;-66
2022/03/11 08:40:45;;;;;;;8.63;7.07;;;;;;;;;;5061720;28;20204;-66
2022/03/11 08:43:11;;;;;;;8.68;7.05;;;;;;;;;;5061889;28;20423;-65
2022/03/11 08:45:38;;;;;;;7.50;6.45;;;;;;;;;;5061781;28;20505;-66
2022/03/11 08:48:04;;;;;;;13.63;6.70;;;;;;;;;;5061436;28;20275;-66
2022/03/11 08:50:31;;;;;;;12.55;7.20;;;;;;;;;;5061987;28;20197;-66
2022/03/11 08:52:57;;;;;;;10.88;7.03;;;;;;;;;;5061578;28;20322;-66
2022/03/11 08:55:24;;;;;;;10.40;6.63;;;;;;;;;;5061867;28;20264;-66
2022/03/11 08:57:52;;;;;;;14.57;7.03;;;;;;;;;;5061612;28;20196;-66
2022/03/11 09:00:19;;;;;;;10.88;7.00;;;;;;;;;;5061642;28;20250;-66
2022/03/11 09:02:46;;;;;;;10.00;7.68;;;;;;;;;;5061884;28;20244;-66
2022/03/11 09:05:13;;;;;;;9.60;6.93;;;;;;;;;;5061482;28;20417;-66
2022/03/11 09:07:39;;;;;;;11.15;7.65;;;;;;;;;;5061202;28;20289;-66
2022/03/11 09:10:07;;;;;;;11.65;7.20;;;;;;;;;;5061498;28;20205;-66
2022/03/11 09:12:33;;;;;;;8.85;7.18;;;;;;;;;;5061607;28;20197;-66
2022/03/11 09:15:01;;;;;;;12.65;7.53;;;;;;;;;;5061675;28;20204;-66
2022/03/11 09:17:27;;;;;;;15.10;7.13;;;;;;;;;;5061596;28;20489;-66
2022/03/11 09:19:54;;;;;;;11.63;7.57;;;;;;;;;;5061652;28;20197;-66
2022/03/11 09:22:21;;;;;;;8.50;7.65;;;;;;;;;;5061478;28;20276;-66
2022/03/11 09:24:48;;;;;;;8.98;7.65;;;;;;;;;;5061477;28;20206;-66
2022/03/11 09:27:16;;;;;;;11.48;7.22;;;;;;;;;;5061454;28;20373;-66
2022/03/11 09:29:43;;;;;;;11.18;7.60;;;;;;;;;;5061762;28;20228;-66
2022/03/11 09:32:10;;;;;;;12.98;7.63;;;;;;;;;;5061614;28;20235;-66
2022/03/11 09:34:37;;;;;;;15.70;8.25;;;;;;;;;;5061419;28;20202;-66
2022/03/11 09:37:04;;;;;;;9.15;7.53;;;;;;;;;;5061619;28;20229;-66
2022/03/11 09:39:30;;;;;;;10.23;7.53;;;;;;;;;;5061653;28;20193;-66
2022/03/11 09:41:56;;;;;;;9.40;7.43;;;;;;;;;;5061632;28;20197;-66
2022/03/11 09:44:24;;;;;;;13.93;8.10;;;;;;;;;;5061902;28;20211;-66
2022/03/11 09:46:50;;;;;;;12.00;8.30;;;;;;;;;;5064820;28;20197;-66
2022/03/11 09:49:18;;;;;;;14.63;7.63;;;;;;;;;;5064862;28;20244;-66
2022/03/11 09:51:45;;;;;;;9.63;7.68;;;;;;;;;;5065279;28;20198;-66
2022/03/11 09:54:12;;;;;;;10.50;6.85;;;;;;;;;;5065163;28;20215;-66
2022/03/11 09:56:39;;;;;;;11.57;7.88;;;;;;;;;;5065046;28;20197;-66
2022/03/11 09:59:05;;;;;;;12.05;7.22;;;;;;;;;;5064922;28;20233;-66
2022/03/11 10:01:32;;;;;;;12.02;7.32;;;;;;;;;;5065214;28;20243;-66
2022/03/11 10:03:59;;;;;;;12.82;7.75;;;;;;;;;;5064730;28;20228;-66
2022/03/11 10:06:39;;;;;;;12.35;8.25;;;;;;;;;;5064705;28;20406;-66
2022/03/11 10:09:06;;;;;;;10.20;8.02;;;;;;;;;;5064835;28;20224;-66
2022/03/11 10:11:32;;;;;;;12.10;8.13;;;;;;;;;;5064684;28;20201;-66
2022/03/11 10:14:04;;;;;;;9.77;7.78;;;;;;;;;;5064985;28;20197;-66
2022/03/11 10:16:31;;;;;;;9.73;8.07;;;;;;;;;;5064353;28;20475;-66
2022/03/11 10:18:58;;;;;;;12.50;8.27;;;;;;;;;;5064813;28;20194;-66
2022/03/11 10:21:31;;;;;;;14.13;8.25;;;;;;;;;;5064729;28;20201;-66
2022/03/11 10:23:59;;;;;;;12.38;7.97;;;;;;;;;;5064435;28;20343;-66
2022/03/11 10:26:32;;;;;;;9.63;7.70;;;;;;;;;;5064229;28;20204;-66
2022/03/11 10:28:59;;;;;;;10.00;8.27;;;;;;;;;;5064136;28;20291;-66
2022/03/11 10:31:29;;;;;;;10.05;8.00;;;;;;;;;;5064576;28;20197;-67
2022/03/11 10:34:10;;;;;;;11.23;8.35;;;;;;;;;;5064308;28;20209;-66
2022/03/11 10:36:37;;;;;;;10.25;7.85;;;;;;;;;;5063938;28;20200;-66
2022/03/11 10:39:14;;;;;;;13.38;8.60;;;;;;;;;;5064022;28;20231;-66
2022/03/11 10:41:40;;;;;;;13.50;8.60;;;;;;;;;;5064034;28;20205;-66
2022/03/11 10:44:09;;;;;;;13.15;8.32;;;;;;;;;;5064236;28;20219;-66
2022/03/11 10:46:35;;;;;;;11.98;8.27;;;;;;;;;;5063768;28;20197;-66
2022/03/11 10:49:02;;;;;;;11.30;7.72;;;;;;;;;;5063835;28;20263;-66
2022/03/11 10:51:29;;;;;;;13.27;8.18;;;;;;;;;;5063879;28;20197;-66
2022/03/11 10:53:56;;;;;;;11.52;8.15;;;;;;;;;;5063759;28;20235;-66
2022/03/11 10:56:29;;;;;;;10.85;8.00;;;;;;;;;;5063389;28;20535;-66
2022/03/11 10:58:55;;;;;;;11.52;8.52;;;;;;;;;;5063880;28;20418;-66
2022/03/11 11:01:33;;;;;;;10.35;8.70;;;;;;;;;;5063698;28;20197;-66
2022/03/11 11:04:01;;;;;;;17.83;8.48;;;;;;;;;;5063755;28;20259;-66
2022/03/11 11:06:27;;;;;;;13.27;9.00;;;;;;;;;;5063195;28;20258;-66
2022/03/11 11:08:54;;;;;;;13.30;8.63;;;;;;;;;;5063688;28;20243;-66
2022/03/11 11:11:21;;;;;;;14.57;8.27;;;;;;;;;;5063607;28;20236;-66
2022/03/11 11:13:48;;;;;;;12.10;8.60;;;;;;;;;;5063526;28;20197;-67
2022/03/11 11:16:16;;;;;;;22.20;9.07;;;;;;;;;;5063205;28;20394;-66
2022/03/11 11:18:44;;;;;;;11.35;9.43;;;;;;;;;;5063397;28;20493;-66
2022/03/11 11:21:11;;;;;;;12.65;8.75;;;;;;;;;;5063190;28;20197;-66
2022/03/11 11:23:38;;;;;;;14.90;9.25;;;;;;;;;;5063194;28;20323;-66
2022/03/11 11:26:05;;;;;;;14.55;9.13;;;;;;;;;;5063231;28;20243;-67
2022/03/11 11:28:31;;;;;;;15.68;9.20;;;;;;;;;;5063447;28;20213;-66
2022/03/11 11:31:00;;;;;;;13.32;8.70;;;;;;;;;;5063093;28;20243;-66
2022/03/11 11:33:26;;;;;;;12.25;8.93;;;;;;;;;;5062889;28;20198;-67
2022/03/11 11:35:56;;;;;;;10.38;9.15;;;;;;;;;;5063274;28;20197;-66
2022/03/11 11:38:29;;;;;;;11.27;9.18;;;;;;;;;;5063207;28;20595;-67
2022/03/11 11:40:56;;;;;;;15.02;8.65;;;;;;;;;;5062968;28;20196;-66
2022/03/11 11:43:26;;;;;;;12.80;8.90;;;;;;;;;;5063198;28;20197;-66
2022/03/11 11:45:54;;;;;;;11.30;8.90;;;;;;;;;;5062805;28;20205;-67
2022/03/11 11:48:41;;;;;;;11.35;9.23;;;;;;;;;;5063058;28;20233;-66
2022/03/11 11:51:09;;;;;;;10.45;8.65;;;;;;;;;;5063010;28;20228;-67
2022/03/11 11:53:37;;;;;;;11.90;8.85;;;;;;;;;;5062778;28;20243;-67
2022/03/11 11:56:26;;;;;;;14.43;9.20;;;;;;;;;;5062442;28;20429;-66
2022/03/11 11:58:52;;;;;;;13.48;9.18;;;;;;;;;;5062867;28;20192;-66
2022/03/11 12:01:33;;;;;;;11.02;8.10;;;;;;;;;;5062550;28;20222;-67
2022/03/11 12:04:19;;;;;;;13.70;9.80;;;;;;;;;;5062430;28;20205;-66
2022/03/11 12:06:55;;;;;;;15.10;10.02;;;;;;;;;;5061895;28;20220;-67
2022/03/11 12:09:40;;;;;;;18.85;12.40;;;;;;;;;;5062360;28;20535;-66
2022/03/11 12:12:07;;;;;;;13.65;10.55;;;;;;;;;;5062496;28;20197;-67
2022/03/11 12:14:33;;;;;;;16.27;9.82;;;;;;;;;;5062399;28;20251;-67
2022/03/11 12:17:00;;;;;;;12.73;9.45;;;;;;;;;;5062217;28;20196;-67
2022/03/11 12:19:36;;;;;;;16.10;8.75;;;;;;;;;;5062203;28;20410;-67
2022/03/11 12:22:21;;;;;;;16.48;10.02;;;;;;;;;;5062481;28;20196;-67
2022/03/11 12:24:57;;;;;;;15.93;10.93;;;;;;;;;;5062619;28;20385;-67
2022/03/11 12:27:42;;;;;;;15.70;11.27;;;;;;;;;;5062122;28;20197;-67
2022/03/11 12:30:10;;;;;;;15.55;10.40;;;;;;;;;;5062317;28;20442;-67
2022/03/11 12:32:38;;;;;;;18.20;11.77;;;;;;;;;;5062203;28;20519;-67
2022/03/11 12:35:05;;;;;;;16.30;10.70;;;;;;;;;;5062193;28;20255;-67
2022/03/11 12:37:33;;;;;;;13.32;9.88;;;;;;;;;;5061795;28;20196;-67
2022/03/11 12:40:01;;;;;;;16.55;10.43;;;;;;;;;;5061955;28;20205;-67
2022/03/11 12:42:36;;;;;;;12.80;10.30;;;;;;;;;;5062215;28;20474;-67
2022/03/11 12:45:02;;;;;;;13.35;9.05;;;;;;;;;;5062069;28;20258;-67
2022/03/11 12:47:35;;;;;;;17.90;9.25;;;;;;;;;;5061828;28;20243;-67
2022/03/11 12:50:01;;;;;;;17.20;9.90;;;;;;;;;;5061944;28;20220;-67
2022/03/11 12:52:35;;;;;;;11.25;9.05;;;;;;;;;;5061876;28;20306;-67
2022/03/11 12:55:03;;;;;;;12.52;8.68;;;;;;;;;;5062205;28;20205;-67
2022/03/11 12:57:29;;;;;;;11.70;8.43;;;;;;;;;;5061926;28;20243;-67
2022/03/11 12:59:56;;;;;;;9.88;8.77;;;;;;;;;;5061768;28;20197;-67
2022/03/11 13:02:22;;;;;;;11.70;9.05;;;;;;;;;;5061962;28;20469;-67
2022/03/11 13:04:49;;;;;;;12.45;8.80;;;;;;;;;;5061843;28;20422;-67
2022/03/11 13:07:16;;;;;;;10.57;8.68;;;;;;;;;;5061526;28;20243;-67
2022/03/11 13:09:42;;;;;;;10.85;8.95;;;;;;;;;;5061636;28;20216;-67
2022/03/11 13:12:22;;;;;;;15.05;9.23;;;;;;;;;;5062022;28;20512;-67
2022/03/11 13:14:49;;;;;;;15.00;8.77;;;;;;;;;;5062162;28;20259;-67
2022/03/11 13:17:15;;;;;;;10.68;8.93;;;;;;;;;;5061342;28;20520;-67
2022/03/11 13:19:43;;;;;;;12.93;9.02;;;;;;;;;;5063934;28;20239;-67
2022/03/11 13:22:11;;;;;;;12.57;9.20;;;;;;;;;;5065827;28;20501;-67
2022/03/11 13:24:37;;;;;;;12.52;9.95;;;;;;;;;;5065471;28;20366;-67
2022/03/11 13:27:07;;;;;;;14.52;9.50;;;;;;;;;;5065243;28;20204;-67
2022/03/11 13:29:42;;;;;;;11.55;8.85;;;;;;;;;;5065379;28;20217;-67
2022/03/11 13:32:09;;;;;;;10.23;9.15;;;;;;;;;;5065188;28;20231;-67
2022/03/11 13:34:35;;;;;;;13.15;9.52;;;;;;;;;;5065053;28;20197;-67
2022/03/11 13:37:11;;;;;;;11.23;8.55;;;;;;;;;;5065061;28;20201;-67
2022/03/11 13:39:37;;;;;;;10.52;9.20;;;;;;;;;;5065274;28;20192;-68
2022/03/11 13:42:04;;;;;;;11.73;9.38;;;;;;;;;;5064978;28;20205;-67
2022/03/11 13:44:33;;;;;;;12.98;9.35;;;;;;;;;;5065083;28;20201;-67
2022/03/11 13:47:01;;;;;;;19.35;10.00;;;;;;;;;;5065269;28;20205;-67
2022/03/11 13:49:37;;;;;;;12.02;8.85;;;;;;;;;;5065018;28;20221;-67
2022/03/11 13:52:05;;;;;;;11.70;9.02;;;;;;;;;;5065034;28;20196;-67
2022/03/11 13:54:32;;;;;;;15.65;10.30;;;;;;;;;;5064942;28;20465;-67
2022/03/11 13:56:59;;;;;;;12.82;9.73;;;;;;;;;;5064499;28;20512;-67
2022/03/11 13:59:30;;;;;;;14.13;10.30;;;;;;;;;;5064674;28;20443;-67
2022/03/11 14:02:06;;;;;;;11.93;9.50;;;;;;;;;;5064887;28;20205;-67
2022/03/11 14:04:34;;;;;;;12.50;9.23;;;;;;;;;;5064716;28;20200;-67
2022/03/11 14:07:06;;;;;;;15.82;9.45;;;;;;;;;;5064585;28;20217;-67
2022/03/11 14:09:33;;;;;;;11.05;8.68;;;;;;;;;;5064634;28;20213;-67
2022/03/11 14:11:59;;;;;;;12.23;9.57;;;;;;;;;;5064451;28;20262;-67
2022/03/11 14:14:26;;;;;;;15.02;10.10;;;;;;;;;;5064627;28;20201;-67
2022/03/11 14:16:53;;;;;;;11.35;9.68;;;;;;;;;;5064517;28;20197;-67
2022/03/11 14:19:19;;;;;;;12.90;10.02;;;;;;;;;;5064629;28;20232;-67
2022/03/11 14:21:46;;;;;;;16.05;9.82;;;;;;;;;;5064348;28;20201;-67
2022/03/11 14:24:13;;;;;;;12.52;9.85;;;;;;;;;;5064295;28;20209;-67
2022/03/11 14:26:39;;;;;;;12.10;9.60;;;;;;;;;;5064296;28;20284;-67
2022/03/11 14:29:05;;;;;;;12.70;9.95;;;;;;;;;;5064686;28;20217;-67